Terminal Aerodrome Forecast
Issued by NWS

Home | Current Version | Previous Version | Text Only | Print | Product List | Glossary On
Versions: 1 2 3 4 5 6 7 8 9 10 11 12 13 14 15 16 17 18
012
FTUS43 KGRR 301315 AAA
TAFAZO
TAF AMD
KAZO 301315Z 3013/0112 09010KT 4SM -SHRA BR OVC007
      TEMPO 3013/3016 2SM SHRA BR OVC004
     FM301600 10010KT 3SM -SHRA BR OVC006
      TEMPO 3016/3020 1 1/2SM SHRA BR OVC003
     FM302300 08009KT 1SM +TSRA BR OVC003CB
     FM010200 11012G20KT 1 1/2SM SHRA VCTS OVC003CB
     FM010600 14010KT 3SM -SHRA OVC001
     FM010900 18012G22KT P6SM OVC025=

USA.gov is the U.S. government's official web portal to all federal, state and local government web resources and services.